createdAt,value
2017-11-09T00:00:18.199Z,98.55
2017-11-09T00:01:18.184Z,98.36
2017-11-09T00:02:18.186Z,98.55
2017-11-09T00:03:18.184Z,98.26
2017-11-09T00:04:18.197Z,98.45
2017-11-09T00:05:18.177Z,98.55
2017-11-09T00:06:18.211Z,98.26
2017-11-09T00:07:18.169Z,98.26
2017-11-09T00:08:18.175Z,98.45
2017-11-09T00:09:18.174Z,98.07
2017-11-09T00:10:18.189Z,98.45
2017-11-09T00:11:18.163Z,98.45
2017-11-09T00:12:18.156Z,98.17
2017-11-09T00:13:18.178Z,98.55
2017-11-09T00:14:18.152Z,98.36
2017-11-09T00:15:18.152Z,98.36
2017-11-09T00:16:18.144Z,98.74
2017-11-09T00:17:18.140Z,98.55
2017-11-09T00:18:18.135Z,98.17
2017-11-09T00:19:18.137Z,98.17
2017-11-09T00:20:18.132Z,98.64
2017-11-09T00:21:18.134Z,98.07
2017-11-09T00:22:18.126Z,98.07
2017-11-09T00:23:18.121Z,98.17
2017-11-09T00:24:18.119Z,98.26
2017-11-09T00:25:18.111Z,97.78
2017-11-09T00:26:18.119Z,98.45
2017-11-09T00:27:18.110Z,98.17
2017-11-09T00:28:18.107Z,98.36
2017-11-09T00:29:18.105Z,98.07
2017-11-09T00:30:18.167Z,98.26
2017-11-09T00:31:18.103Z,98.26
2017-11-09T00:32:18.112Z,98.64
2017-11-09T00:33:18.088Z,98.45
2017-11-09T00:34:18.090Z,98.45
2017-11-09T00:35:18.084Z,98.45
2017-11-09T00:36:18.080Z,98.64
2017-11-09T00:37:18.084Z,98.74
2017-11-09T00:38:18.080Z,98.36
2017-11-09T00:39:18.072Z,98.64
2017-11-09T00:40:18.068Z,98.74
2017-11-09T00:41:18.070Z,98.55
2017-11-09T00:42:18.071Z,98.74
2017-11-09T00:43:18.054Z,98.55
2017-11-09T00:44:18.060Z,98.55
2017-11-09T00:45:18.051Z,98.36
2017-11-09T00:46:18.069Z,98.17
2017-11-09T00:47:18.055Z,97.78
2017-11-09T00:48:18.046Z,97.78
2017-11-09T00:49:18.044Z,97.97
2017-11-09T00:50:18.038Z,97.88
2017-11-09T00:51:18.036Z,97.69
2017-11-09T00:52:18.034Z,98.07
2017-11-09T00:53:18.034Z,98.07
2017-11-09T00:54:18.042Z,98.07
2017-11-09T00:55:18.024Z,97.97
2017-11-09T00:56:18.020Z,98.22
2017-11-09T00:57:18.018Z,98.12
2017-11-09T00:58:18.014Z,98.12
2017-11-09T00:59:18.014Z,98.12
2017-11-09T01:00:18.025Z,98.03
2017-11-09T01:01:18.007Z,98.36
2017-11-09T01:02:18.023Z,98.31
2017-11-09T01:03:18.001Z,97.83
2017-11-09T01:04:17.996Z,97.74
2017-11-09T01:05:18.004Z,97.74
2017-11-09T01:06:17.989Z,97.64
2017-11-09T01:07:17.989Z,97.64
2017-11-09T01:08:18.666Z,97.36
2017-11-09T01:09:17.982Z,97.27
2017-11-09T01:10:17.982Z,97.27
2017-11-09T01:11:17.979Z,97.64
2017-11-09T01:12:17.974Z,97.36
2017-11-09T01:13:17.970Z,97.45
2017-11-09T01:14:17.977Z,97.45
2017-11-09T01:15:17.964Z,97.45
2017-11-09T01:16:17.963Z,97.64
2017-11-09T01:17:17.958Z,97.45
2017-11-09T01:18:17.952Z,97.36
2017-11-09T01:19:17.954Z,97.17
2017-11-09T01:20:17.953Z,97.17
2017-11-09T01:21:17.950Z,97.17
2017-11-09T01:22:17.945Z,97.27
2017-11-09T01:23:17.941Z,97.08
2017-11-09T01:24:17.939Z,97.36
2017-11-09T01:25:17.939Z,97.45
2017-11-09T01:26:17.934Z,97.27
2017-11-09T01:27:17.930Z,97.45
2017-11-09T01:28:17.928Z,97.64
2017-11-09T01:29:17.925Z,97.93
2017-11-09T01:30:17.924Z,97.55
2017-11-09T01:31:17.919Z,97.74
2017-11-09T01:32:17.918Z,97.45
2017-11-09T01:33:17.918Z,97.17
2017-11-09T01:34:17.910Z,97.64
2017-11-09T01:35:17.912Z,97.45
2017-11-09T01:36:17.905Z,97.45
2017-11-09T01:37:17.903Z,97.27
2017-11-09T01:38:17.905Z,97.55
2017-11-09T01:39:17.893Z,97.83
2017-11-09T01:40:17.893Z,97.74
2017-11-09T01:41:17.890Z,97.93
2017-11-09T01:42:25.517Z,98.50
2017-11-09T01:44:12.469Z,98.31
2017-11-09T01:45:12.443Z,98.50
2017-11-09T01:46:12.434Z,98.41
2017-11-09T01:48:35.482Z,98.12
2017-11-09T01:49:43.076Z,98.12
2017-11-09T01:51:28.831Z,98.22
2017-11-09T01:52:28.809Z,98.50
2017-11-09T01:54:23.196Z,98.41
2017-11-09T01:55:23.174Z,98.31
2017-11-09T01:57:16.561Z,98.50
2017-11-09T01:58:16.539Z,98.88
2017-11-09T02:00:09.939Z,99.26
2017-11-09T02:01:09.899Z,98.93
2017-11-09T02:03:03.304Z,98.74
2017-11-09T02:04:03.270Z,98.64
2017-11-09T02:05:56.668Z,98.83
2017-11-09T02:06:56.651Z,98.83
2017-11-09T02:08:51.038Z,98.88
2017-11-09T02:09:51.023Z,98.31
2017-11-09T02:10:51.004Z,98.26
2017-11-09T02:11:51.022Z,98.50
2017-11-09T02:12:50.999Z,98.41
2017-11-09T02:13:50.993Z,98.50
2017-11-09T02:14:51.030Z,98.50
2017-11-09T02:15:50.985Z,98.60
2017-11-09T02:16:50.987Z,98.69
2017-11-09T02:17:50.986Z,98.45
2017-11-09T02:18:51.003Z,98.79
2017-11-09T02:19:50.979Z,98.03
2017-11-09T02:20:50.981Z,98.31
2017-11-09T02:21:50.966Z,98.03
2017-11-09T02:22:50.964Z,98.12
2017-11-09T02:23:50.971Z,98.22
2017-11-09T02:24:50.959Z,97.74
2017-11-09T02:25:50.966Z,98.22
2017-11-09T02:26:50.978Z,97.83
2017-11-09T02:27:50.954Z,98.31
2017-11-09T02:28:50.946Z,98.12
2017-11-09T02:29:50.965Z,98.22
2017-11-09T02:30:50.947Z,98.41
2017-11-09T02:31:50.943Z,98.22
2017-11-09T02:32:50.939Z,98.31
2017-11-09T02:33:50.936Z,98.31
2017-11-09T02:34:50.939Z,97.74
2017-11-09T02:35:50.961Z,97.83
2017-11-09T02:36:50.928Z,97.74
2017-11-09T02:37:50.920Z,97.64
2017-11-09T02:38:50.923Z,98.12
2017-11-09T02:39:50.960Z,97.74
2017-11-09T02:40:50.916Z,97.83
2017-11-09T02:41:50.910Z,97.74
2017-11-09T02:42:50.913Z,98.50
2017-11-09T02:43:50.909Z,98.41
2017-11-09T02:44:50.917Z,98.12
2017-11-09T02:45:50.906Z,98.41
2017-11-09T02:46:50.896Z,98.22
2017-11-09T02:47:50.908Z,98.03
2017-11-09T02:48:50.908Z,98.12
2017-11-09T02:49:50.898Z,98.12
2017-11-09T02:50:50.894Z,98.12
2017-11-09T02:51:50.893Z,98.12
2017-11-09T02:52:50.879Z,97.74
2017-11-09T02:53:50.882Z,98.22
2017-11-09T02:54:50.878Z,98.60
2017-11-09T02:55:50.889Z,98.31
2017-11-09T02:56:50.907Z,98.69
2017-11-09T02:57:50.871Z,98.60
2017-11-09T02:58:50.867Z,98.41
2017-11-09T02:59:50.867Z,99.16
2017-11-09T03:00:50.886Z,98.88
2017-11-09T03:01:50.871Z,99.07
2017-11-09T03:02:50.851Z,98.88
2017-11-09T03:03:50.853Z,99.16
2017-11-09T03:04:50.845Z,98.69
2017-11-09T03:05:50.880Z,98.41
2017-11-09T03:06:50.885Z,98.45
2017-11-09T03:07:50.848Z,98.69
2017-11-09T03:08:50.834Z,98.64
2017-11-09T03:09:50.843Z,98.74
2017-11-09T03:10:50.832Z,98.93
2017-11-09T03:11:50.837Z,98.74
2017-11-09T03:12:50.828Z,99.30
2017-11-09T03:13:50.822Z,99.11
2017-11-09T03:14:50.818Z,99.02
2017-11-09T03:15:50.813Z,99.40
2017-11-09T03:16:50.815Z,99.21
2017-11-09T03:17:50.809Z,99.21
2017-11-09T03:18:50.811Z,99.21
2017-11-09T03:19:50.812Z,99.40
2017-11-09T03:20:50.800Z,99.21
2017-11-09T03:21:50.827Z,99.11
2017-11-09T03:22:50.802Z,99.02
2017-11-09T03:23:50.795Z,99.59
2017-11-09T03:24:50.791Z,99.59
2017-11-09T03:25:50.808Z,99.88
2017-11-09T03:26:50.791Z,99.69
2017-11-09T03:27:50.797Z,99.40
2017-11-09T03:28:50.780Z,99.30
2017-11-09T03:29:50.777Z,99.78
2017-11-09T03:30:50.778Z,99.64
2017-11-09T03:31:50.769Z,99.59
2017-11-09T03:32:50.770Z,99.69
2017-11-09T03:33:50.764Z,99.50
2017-11-09T03:34:50.777Z,99.11
2017-11-09T03:35:50.763Z,99.30
2017-11-09T03:36:50.756Z,99.36
2017-11-09T03:37:50.759Z,98.64
2017-11-09T03:38:50.754Z,99.36
2017-11-09T03:39:50.747Z,99.55
2017-11-09T03:40:50.749Z,99.21
2017-11-09T03:41:50.745Z,98.83
2017-11-09T03:42:50.748Z,99.30
2017-11-09T03:43:50.735Z,99.36
2017-11-09T03:44:50.730Z,98.97
2017-11-09T03:45:50.731Z,99.21
2017-11-09T03:46:50.728Z,99.07
2017-11-09T03:47:50.733Z,98.55
2017-11-09T03:48:50.728Z,98.64
2017-11-09T03:49:50.724Z,99.26
2017-11-09T03:50:50.716Z,99.16
2017-11-09T03:51:50.739Z,99.16
2017-11-09T03:52:50.708Z,98.83
2017-11-09T03:53:50.706Z,99.36
2017-11-09T03:54:50.704Z,98.83
2017-11-09T03:55:50.703Z,98.83
2017-11-09T03:56:50.695Z,99.02
2017-11-09T03:57:50.694Z,98.83
2017-11-09T03:58:50.689Z,98.83
2017-11-09T03:59:50.688Z,98.83
2017-11-09T04:00:50.684Z,98.93
2017-11-09T04:01:50.680Z,99.40
2017-11-09T04:02:50.681Z,98.93
2017-11-09T04:03:50.681Z,99.30
2017-11-09T04:04:50.674Z,99.11
2017-11-09T04:05:50.676Z,99.11
2017-11-09T04:06:50.674Z,99.11
2017-11-09T04:07:50.668Z,99.30
2017-11-09T04:08:50.662Z,98.64
2017-11-09T04:09:50.660Z,98.64
2017-11-09T04:10:50.657Z,99.30
2017-11-09T04:11:50.654Z,99.11
2017-11-09T04:12:50.654Z,98.93
2017-11-09T04:13:50.648Z,98.93
2017-11-09T04:14:50.645Z,98.93
2017-11-09T04:15:50.642Z,99.21
2017-11-09T04:16:50.641Z,99.21
2017-11-09T04:17:50.638Z,99.21
2017-11-09T04:18:50.634Z,99.11
2017-11-09T04:19:50.640Z,99.02
2017-11-09T04:20:50.639Z,99.02
2017-11-09T04:21:50.628Z,99.50
2017-11-09T04:22:50.617Z,99.88
2017-11-09T04:23:50.618Z,99.40
2017-11-09T04:24:50.615Z,99.88
2017-11-09T04:25:50.614Z,99.69
2017-11-09T04:26:50.612Z,99.50
2017-11-09T04:27:50.607Z,99.88
2017-11-09T04:28:50.598Z,99.88
2017-11-09T04:29:50.614Z,99.88
2017-11-09T04:30:50.599Z,99.69
2017-11-09T04:31:50.595Z,99.59
2017-11-09T04:32:50.590Z,99.69
2017-11-09T04:33:50.593Z,99.69
2017-11-09T04:34:50.587Z,99.78
2017-11-09T04:35:50.590Z,99.78
2017-11-09T04:36:50.582Z,99.59
2017-11-09T04:37:50.576Z,99.40
2017-11-09T04:38:50.587Z,99.69
2017-11-09T04:39:50.574Z,99.40
2017-11-09T04:40:50.560Z,99.99
2017-11-09T04:41:50.560Z,99.59
2017-11-09T04:42:50.580Z,99.69
2017-11-09T04:43:50.580Z,99.59
2017-11-09T04:44:50.556Z,99.78
2017-11-09T04:45:50.551Z,99.99
2017-11-09T04:46:50.548Z,99.50
2017-11-09T04:47:50.587Z,99.69
2017-11-09T04:48:50.541Z,99.02
2017-11-09T04:49:50.542Z,98.93
2017-11-09T04:50:50.533Z,98.93
2017-11-09T04:51:50.533Z,98.93
2017-11-09T04:52:50.527Z,98.83
2017-11-09T04:53:50.526Z,99.30
2017-11-09T04:54:50.522Z,98.93
2017-11-09T04:55:50.520Z,99.21
2017-11-09T04:56:50.538Z,99.21
2017-11-09T04:57:50.519Z,99.02
2017-11-09T04:58:50.511Z,99.30
2017-11-09T04:59:50.509Z,98.64
2017-11-09T05:00:50.508Z,98.83
2017-11-09T05:01:50.505Z,98.83
2017-11-09T05:02:50.502Z,98.83
2017-11-09T05:03:50.497Z,98.83
2017-11-09T05:04:50.495Z,98.83
2017-11-09T05:05:50.495Z,97.97
2017-11-09T05:06:50.481Z,98.36
2017-11-09T05:07:50.489Z,98.55
2017-11-09T05:08:50.479Z,98.17
2017-11-09T05:09:50.479Z,98.93
2017-11-09T05:10:50.486Z,98.93
2017-11-09T05:11:50.475Z,98.74
2017-11-09T05:12:50.471Z,98.83
2017-11-09T05:13:50.475Z,98.83
2017-11-09T05:14:50.471Z,99.11
2017-11-09T05:15:50.469Z,99.02
2017-11-09T05:16:50.462Z,98.93
2017-11-09T05:17:50.494Z,99.21
2017-11-09T05:18:50.452Z,99.11
2017-11-09T05:19:50.451Z,99.02
2017-11-09T05:20:50.453Z,98.93
2017-11-09T05:21:50.445Z,99.02
2017-11-09T05:22:50.437Z,98.74
2017-11-09T05:23:50.439Z,98.93
2017-11-09T05:24:50.434Z,99.02
2017-11-09T05:25:50.428Z,99.02
2017-11-09T05:26:50.428Z,99.02
2017-11-09T05:27:50.424Z,98.17
2017-11-09T05:28:50.427Z,98.36
2017-11-09T05:29:50.430Z,98.55
2017-11-09T05:30:50.415Z,98.36
2017-11-09T05:31:50.414Z,98.26
2017-11-09T05:32:50.412Z,98.17
2017-11-09T05:33:50.416Z,97.78
2017-11-09T05:34:50.429Z,98.26
2017-11-09T05:35:50.423Z,98.07
2017-11-09T05:36:50.402Z,98.45
2017-11-09T05:37:50.400Z,98.17
2017-11-09T05:38:50.392Z,97.88
2017-11-09T05:39:50.426Z,98.17
2017-11-09T05:40:50.382Z,98.45
2017-11-09T05:41:50.381Z,98.17
2017-11-09T05:42:50.386Z,98.45
2017-11-09T05:43:50.496Z,98.45
2017-11-09T05:44:50.381Z,97.88
2017-11-09T05:45:50.369Z,98.17
2017-11-09T05:46:50.390Z,98.17
2017-11-09T05:47:50.365Z,97.88
2017-11-09T05:48:50.362Z,98.45
2017-11-09T05:49:50.357Z,98.26
2017-11-09T05:50:50.353Z,98.36
2017-11-09T05:51:50.357Z,98.55
2017-11-09T05:52:50.349Z,98.55
2017-11-09T05:53:50.345Z,98.64
2017-11-09T05:54:50.344Z,98.36
2017-11-09T05:55:50.340Z,99.11
2017-11-09T05:56:50.343Z,98.45
2017-11-09T05:57:50.333Z,98.55
2017-11-09T05:58:50.332Z,98.45
2017-11-09T05:59:50.323Z,98.55
2017-11-09T06:00:50.322Z,98.74
2017-11-09T06:01:50.320Z,98.74
2017-11-09T06:02:50.315Z,98.55
2017-11-09T06:03:50.323Z,98.07
2017-11-09T06:04:50.309Z,98.26
2017-11-09T06:05:50.306Z,98.45
2017-11-09T06:06:50.312Z,98.45
2017-11-09T06:07:50.308Z,97.97
2017-11-09T06:08:50.302Z,98.45
2017-11-09T06:09:50.293Z,98.17
2017-11-09T06:10:50.293Z,98.36
2017-11-09T06:11:50.318Z,98.64
2017-11-09T06:12:50.286Z,98.55
2017-11-09T06:13:50.285Z,98.17
2017-11-09T06:14:50.282Z,98.26
2017-11-09T06:15:50.274Z,98.36
2017-11-09T06:16:50.271Z,98.36
2017-11-09T06:17:50.271Z,98.26
2017-11-09T06:18:50.267Z,98.36
2017-11-09T06:19:50.289Z,98.45
2017-11-09T06:20:50.257Z,98.26
2017-11-09T06:21:50.283Z,98.17
2017-11-09T06:22:50.250Z,98.55
2017-11-09T06:23:50.333Z,98.45
2017-11-09T06:24:50.298Z,98.64
2017-11-09T06:25:50.248Z,99.02
2017-11-09T06:26:50.244Z,98.74
2017-11-09T06:27:50.233Z,98.74
2017-11-09T06:28:50.236Z,98.93
2017-11-09T06:29:50.232Z,99.11
2017-11-09T06:30:50.259Z,98.26
2017-11-09T06:31:50.225Z,98.45
2017-11-09T06:32:50.224Z,98.64
2017-11-09T06:33:50.219Z,99.11
2017-11-09T06:34:50.218Z,99.21
2017-11-09T06:35:50.219Z,98.93
2017-11-09T06:36:50.211Z,98.93
2017-11-09T06:37:50.209Z,99.02
2017-11-09T06:38:50.230Z,98.26
2017-11-09T06:39:50.203Z,98.55
2017-11-09T06:40:50.207Z,98.36
2017-11-09T06:41:50.203Z,98.07
2017-11-09T06:42:50.199Z,98.45
2017-11-09T06:43:50.187Z,98.26
2017-11-09T06:44:50.188Z,98.93
2017-11-09T06:45:50.187Z,98.83
2017-11-09T06:46:50.183Z,98.55
2017-11-09T06:47:50.186Z,99.21
2017-11-09T06:48:50.174Z,99.11
2017-11-09T06:49:50.169Z,99.11
2017-11-09T06:50:50.170Z,99.11
2017-11-09T06:51:50.175Z,98.93
2017-11-09T06:52:50.166Z,98.93
2017-11-09T06:53:50.160Z,99.21
2017-11-09T06:54:50.172Z,98.74
2017-11-09T06:55:50.153Z,99.02
2017-11-09T06:56:50.153Z,99.02
2017-11-09T06:57:50.156Z,99.02
2017-11-09T06:58:50.142Z,98.93
2017-11-09T06:59:50.137Z,98.93
2017-11-09T07:00:50.146Z,98.93
2017-11-09T07:01:50.137Z,99.02
2017-11-09T07:02:50.132Z,98.93
2017-11-09T07:03:50.190Z,98.64
2017-11-09T07:04:50.184Z,98.83
2017-11-09T07:05:50.127Z,99.02
2017-11-09T07:06:50.143Z,98.74
2017-11-09T07:07:50.160Z,98.93
2017-11-09T07:08:50.131Z,98.74
2017-11-09T07:09:50.113Z,98.74
2017-11-09T07:10:50.131Z,98.74
2017-11-09T07:11:50.109Z,99.11
2017-11-09T07:12:50.146Z,99.11
2017-11-09T07:13:50.105Z,98.74
2017-11-09T07:14:50.121Z,98.83
2017-11-09T07:15:50.092Z,98.93
2017-11-09T07:16:50.132Z,99.21
2017-11-09T07:17:50.098Z,99.21
2017-11-09T07:18:50.101Z,99.59
2017-11-09T07:19:50.130Z,99.78
2017-11-09T07:20:50.079Z,99.69
2017-11-09T07:21:50.246Z,99.69
2017-11-09T07:22:50.073Z,99.69
2017-11-09T07:23:50.062Z,99.99
2017-11-09T07:24:50.079Z,99.99
2017-11-09T07:25:50.060Z,99.99
2017-11-09T07:26:50.059Z,99.99
2017-11-09T07:27:50.053Z,99.99
2017-11-09T07:28:50.055Z,99.99
2017-11-09T07:29:50.063Z,99.99
2017-11-09T07:30:50.046Z,99.99
2017-11-09T07:31:50.041Z,99.99
2017-11-09T07:32:50.039Z,99.69
2017-11-09T07:33:50.060Z,99.88
2017-11-09T07:34:50.034Z,99.97
2017-11-09T07:35:50.027Z,99.50
2017-11-09T07:36:50.027Z,99.59
2017-11-09T07:37:50.031Z,99.59
2017-11-09T07:38:50.022Z,99.99
2017-11-09T07:39:50.015Z,99.69
2017-11-09T07:40:50.011Z,99.59
2017-11-09T07:41:50.019Z,99.69
2017-11-09T07:42:50.014Z,99.50
2017-11-09T07:43:50.000Z,99.26
2017-11-09T07:44:49.999Z,98.88
2017-11-09T07:45:50.000Z,98.64
2017-11-09T07:46:49.994Z,98.79
2017-11-09T07:47:49.995Z,98.88
2017-11-09T07:48:49.990Z,99.16
2017-11-09T07:49:49.987Z,99.02
2017-11-09T07:50:49.998Z,99.16
2017-11-09T07:51:49.983Z,98.41
2017-11-09T07:52:50.000Z,98.50
2017-11-09T07:53:49.994Z,98.17
2017-11-09T07:54:49.979Z,98.26
2017-11-09T07:55:49.970Z,97.97
2017-11-09T07:56:49.966Z,98.55
2017-11-09T07:57:49.964Z,98.55
2017-11-09T07:58:49.960Z,98.36
2017-11-09T07:59:49.957Z,98.45
2017-11-09T08:00:49.956Z,99.11
2017-11-09T08:01:49.955Z,98.17
2017-11-09T08:02:49.951Z,98.74
2017-11-09T08:03:49.952Z,98.83
2017-11-09T08:04:49.943Z,99.02
2017-11-09T08:05:49.938Z,98.93
2017-11-09T08:06:49.952Z,99.21
2017-11-09T08:07:49.931Z,98.93
2017-11-09T08:08:49.935Z,99.02
2017-11-09T08:09:49.948Z,98.93
2017-11-09T08:10:49.919Z,99.02
2017-11-09T08:11:49.921Z,99.02
2017-11-09T08:12:49.922Z,99.02
2017-11-09T08:13:49.926Z,99.21
2017-11-09T08:14:49.913Z,98.83
2017-11-09T08:15:49.905Z,99.21
2017-11-09T08:16:49.903Z,99.30
2017-11-09T08:17:49.905Z,99.11
2017-11-09T08:18:49.897Z,98.83
2017-11-09T08:19:49.892Z,99.30
2017-11-09T08:20:49.900Z,99.11
2017-11-09T08:21:49.884Z,99.11
2017-11-09T08:22:49.882Z,98.83
2017-11-09T08:23:49.880Z,99.21
2017-11-09T08:24:49.877Z,98.74
2017-11-09T08:25:49.875Z,98.79
2017-11-09T08:26:49.871Z,98.83
2017-11-09T08:27:49.871Z,98.79
2017-11-09T08:28:49.865Z,99.11
2017-11-09T08:29:49.863Z,98.36
2017-11-09T08:30:49.863Z,98.45
2017-11-09T08:31:49.862Z,98.45
2017-11-09T08:32:49.853Z,98.36
2017-11-09T08:33:49.865Z,98.36
2017-11-09T08:34:49.845Z,98.26
2017-11-09T08:35:49.840Z,98.45
2017-11-09T08:36:49.837Z,97.97
2017-11-09T08:37:49.845Z,98.26
2017-11-09T08:38:49.834Z,98.55
2017-11-09T08:39:49.831Z,98.55
2017-11-09T08:40:49.827Z,98.36
2017-11-09T08:41:49.824Z,98.64
2017-11-09T08:42:49.822Z,98.07
2017-11-09T08:43:49.970Z,98.17
2017-11-09T08:44:49.815Z,98.26
2017-11-09T08:45:49.809Z,98.83
2017-11-09T08:46:49.811Z,98.26
2017-11-09T08:47:49.807Z,98.55
2017-11-09T08:48:49.800Z,98.55
2017-11-09T08:49:49.802Z,98.26
2017-11-09T08:50:49.801Z,98.83
2017-11-09T08:51:49.797Z,98.93
2017-11-09T08:52:49.785Z,99.11
2017-11-09T08:53:49.787Z,99.78
2017-11-09T08:54:49.784Z,99.99
2017-11-09T08:55:49.783Z,99.99
2017-11-09T08:56:49.782Z,99.99
2017-11-09T08:57:49.776Z,99.97
2017-11-09T08:58:49.773Z,99.99
2017-11-09T08:59:49.766Z,99.69
2017-11-09T09:00:49.761Z,99.99
2017-11-09T09:01:49.765Z,99.99
2017-11-09T09:02:49.764Z,99.69
2017-11-09T09:03:49.755Z,99.97
2017-11-09T09:04:49.745Z,99.88
2017-11-09T09:05:49.750Z,99.21
2017-11-09T09:06:49.741Z,99.11
2017-11-09T09:07:49.736Z,98.93
2017-11-09T09:08:49.740Z,98.83
2017-11-09T09:09:49.736Z,98.93
2017-11-09T09:10:49.734Z,99.11
2017-11-09T09:11:49.727Z,99.59
2017-11-09T09:12:49.732Z,99.69
2017-11-09T09:13:49.725Z,99.30
2017-11-09T09:14:49.738Z,99.59
2017-11-09T09:15:49.716Z,99.59
2017-11-09T09:16:49.710Z,99.59
2017-11-09T09:17:49.712Z,99.78
2017-11-09T09:18:49.721Z,99.88
2017-11-09T09:19:49.698Z,99.59
2017-11-09T09:20:49.697Z,99.69
2017-11-09T09:21:49.694Z,99.21
2017-11-09T09:22:49.688Z,98.83
2017-11-09T09:23:49.684Z,99.30
2017-11-09T09:24:49.710Z,99.21
2017-11-09T09:25:49.689Z,98.93
2017-11-09T09:26:49.686Z,98.74
2017-11-09T09:27:49.676Z,98.07
2017-11-09T09:28:49.670Z,99.30
2017-11-09T09:29:49.665Z,98.74
2017-11-09T09:30:49.663Z,98.26
2017-11-09T09:31:49.679Z,99.02
2017-11-09T09:32:49.655Z,99.02
2017-11-09T09:33:49.654Z,99.21
2017-11-09T09:34:49.658Z,99.21
2017-11-09T09:35:49.641Z,98.74
2017-11-09T09:36:49.645Z,98.26
2017-11-09T09:37:49.642Z,98.55
2017-11-09T09:38:49.630Z,98.17
2017-11-09T09:39:49.641Z,98.55
2017-11-09T09:40:49.625Z,98.45
2017-11-09T09:41:49.639Z,98.17
2017-11-09T09:42:49.622Z,98.26
2017-11-09T09:43:49.620Z,98.26
2017-11-09T09:44:49.613Z,98.55
2017-11-09T09:45:49.611Z,98.55
2017-11-09T09:46:49.611Z,98.64
2017-11-09T09:47:49.603Z,98.07
2017-11-09T09:48:49.597Z,98.07
2017-11-09T09:49:49.599Z,97.97
2017-11-09T09:50:49.601Z,98.26
2017-11-09T09:51:49.594Z,97.69
2017-11-09T09:52:49.587Z,97.78
2017-11-09T09:53:49.583Z,98.45
2017-11-09T09:54:49.580Z,97.88
2017-11-09T09:55:49.579Z,97.97
2017-11-09T09:56:49.573Z,97.88
2017-11-09T09:57:49.576Z,97.69
2017-11-09T09:58:49.567Z,97.97
2017-11-09T09:59:49.564Z,98.03
2017-11-09T10:00:49.564Z,98.50
2017-11-09T10:01:49.572Z,97.69
2017-11-09T10:02:49.557Z,97.64
2017-11-09T10:03:49.551Z,97.93
2017-11-09T10:04:49.571Z,97.64
2017-11-09T10:05:49.548Z,97.17
2017-11-09T10:06:49.553Z,96.69
2017-11-09T10:07:49.542Z,96.89
2017-11-09T10:08:49.535Z,97.17
2017-11-09T10:09:49.538Z,96.41
2017-11-09T10:10:49.527Z,96.98
2017-11-09T10:11:49.533Z,96.69
2017-11-09T10:12:49.524Z,96.41
2017-11-09T10:13:49.526Z,95.75
2017-11-09T10:14:49.518Z,95.84
2017-11-09T10:15:49.522Z,95.79
2017-11-09T10:16:49.518Z,96.50
2017-11-09T10:17:49.510Z,96.79
2017-11-09T10:18:49.512Z,96.50
2017-11-09T10:19:49.508Z,96.89
2017-11-09T10:20:49.510Z,96.69
2017-11-09T10:21:49.502Z,96.98
2017-11-09T10:22:49.498Z,96.69
2017-11-09T10:23:49.510Z,96.45
2017-11-09T10:24:49.491Z,96.50
2017-11-09T10:25:49.521Z,96.79
2017-11-09T10:26:49.492Z,96.60
2017-11-09T10:27:49.515Z,97.17
2017-11-09T10:28:49.494Z,96.22
2017-11-09T10:29:52.296Z,95.84
2017-11-09T10:30:49.796Z,96.03
2017-11-09T10:33:30.360Z,96.03
2017-11-09T10:34:30.326Z,97.08
2017-11-09T10:36:23.710Z,94.98
2017-11-09T10:37:23.685Z,95.27
2017-11-09T10:39:18.074Z,95.22
2017-11-09T10:40:18.046Z,95.22
2017-11-09T10:42:11.846Z,95.51
2017-11-09T10:43:11.828Z,94.74
2017-11-09T10:45:05.227Z,93.89
2017-11-09T10:46:05.200Z,93.70
2017-11-09T10:47:58.665Z,94.46
2017-11-09T10:49:07.177Z,93.89
2017-11-09T10:50:51.948Z,93.79
2017-11-09T10:51:51.913Z,93.41
2017-11-09T10:53:47.844Z,93.89
2017-11-09T10:54:47.278Z,93.41
2017-11-09T10:56:41.664Z,92.46
2017-11-09T10:57:41.642Z,92.56
2017-11-09T10:59:36.033Z,93.23
2017-11-09T11:00:36.015Z,93.89
2017-11-09T11:02:29.397Z,93.89
2017-11-09T11:03:29.376Z,92.27
2017-11-09T11:05:22.815Z,91.89
2017-11-09T11:06:22.787Z,93.04
2017-11-09T11:08:16.171Z,92.70
2017-11-09T11:09:16.151Z,92.51
2017-11-09T11:11:09.542Z,91.65
2017-11-09T11:12:09.515Z,92.13
2017-11-09T11:14:04.932Z,91.94
2017-11-09T11:15:04.894Z,92.22
2017-11-09T11:16:04.902Z,92.60
2017-11-09T11:17:04.893Z,92.60
2017-11-09T11:18:04.901Z,91.94
2017-11-09T11:19:04.888Z,91.65
2017-11-09T11:20:04.884Z,91.46
2017-11-09T11:21:04.888Z,91.75
2017-11-09T11:22:04.889Z,92.41
2017-11-09T11:23:04.877Z,91.75
2017-11-09T11:24:04.880Z,91.56
2017-11-09T11:25:04.878Z,91.94
2017-11-09T11:26:04.885Z,92.79
2017-11-09T11:27:04.877Z,92.99
2017-11-09T11:28:04.872Z,92.32
2017-11-09T11:29:04.870Z,91.94
2017-11-09T11:30:04.873Z,92.51
2017-11-09T11:31:04.864Z,91.65
2017-11-09T11:32:04.863Z,91.08
2017-11-09T11:33:04.863Z,91.08
2017-11-09T11:34:04.862Z,91.08
2017-11-09T11:35:04.861Z,91.46
2017-11-09T11:36:04.856Z,91.37
2017-11-09T11:37:04.856Z,91.08
2017-11-09T11:38:04.855Z,91.22
2017-11-09T11:39:04.852Z,91.42
2017-11-09T11:40:04.850Z,91.13
2017-11-09T11:41:04.846Z,91.32
2017-11-09T11:42:04.846Z,92.56
2017-11-09T11:43:04.845Z,92.46
2017-11-09T11:44:04.846Z,92.08
2017-11-09T11:45:04.844Z,92.36
2017-11-09T11:46:04.841Z,93.51
2017-11-09T11:47:04.836Z,92.56
2017-11-09T11:48:04.836Z,92.84
2017-11-09T11:49:04.838Z,92.46
2017-11-09T11:50:04.831Z,92.46
2017-11-09T11:51:04.848Z,92.46
2017-11-09T11:52:04.830Z,93.04
2017-11-09T11:53:04.869Z,93.13
2017-11-09T11:54:04.822Z,92.84
2017-11-09T11:55:04.820Z,92.56
2017-11-09T11:56:04.819Z,92.84
2017-11-09T11:57:04.812Z,93.32
2017-11-09T11:58:04.855Z,93.32
2017-11-09T11:59:04.811Z,93.41
2017-11-09T12:00:04.812Z,93.32
2017-11-09T12:01:04.810Z,92.84
2017-11-09T12:02:04.807Z,92.84
2017-11-09T12:03:04.815Z,92.46
2017-11-09T12:04:04.801Z,92.46
2017-11-09T12:05:04.800Z,92.65
2017-11-09T12:06:04.823Z,92.84
2017-11-09T12:07:04.808Z,93.41
2017-11-09T12:08:04.793Z,92.46
2017-11-09T12:09:04.788Z,92.46
2017-11-09T12:10:04.789Z,92.56
2017-11-09T12:11:04.785Z,92.56
2017-11-09T12:12:04.786Z,91.70
2017-11-09T12:13:04.784Z,92.03
2017-11-09T12:14:04.797Z,92.27
2017-11-09T12:15:04.776Z,92.22
2017-11-09T12:16:04.776Z,92.75
2017-11-09T12:17:04.772Z,92.18
2017-11-09T12:18:04.770Z,92.27
2017-11-09T12:19:04.772Z,92.36
2017-11-09T12:20:04.789Z,92.60
2017-11-09T12:21:04.767Z,92.41
2017-11-09T12:22:04.765Z,91.56
2017-11-09T12:23:04.761Z,91.75
2017-11-09T12:24:04.776Z,92.60
2017-11-09T12:25:04.757Z,91.56
2017-11-09T12:26:04.754Z,91.08
2017-11-09T12:27:04.758Z,91.65
2017-11-09T12:28:04.751Z,91.75
2017-11-09T12:29:04.760Z,91.94
2017-11-09T12:30:04.752Z,91.65
2017-11-09T12:31:04.756Z,91.37
2017-11-09T12:32:04.742Z,91.56
2017-11-09T12:33:04.738Z,91.94
2017-11-09T12:34:04.741Z,92.70
2017-11-09T12:35:04.737Z,91.75
2017-11-09T12:36:04.734Z,91.17
2017-11-09T12:37:04.735Z,91.46
2017-11-09T12:38:04.736Z,91.27
2017-11-09T12:39:04.727Z,91.37
2017-11-09T12:40:04.726Z,92.60
2017-11-09T12:41:04.727Z,92.70
2017-11-09T12:42:04.725Z,92.70
2017-11-09T12:43:04.720Z,91.94
2017-11-09T12:44:04.719Z,91.56
2017-11-09T12:45:04.733Z,92.22
2017-11-09T12:46:04.717Z,91.94
2017-11-09T12:47:04.716Z,92.41
2017-11-09T12:48:04.709Z,92.03
2017-11-09T12:49:04.714Z,92.51
2017-11-09T12:50:04.710Z,92.46
2017-11-09T12:51:04.708Z,92.46
2017-11-09T12:52:04.705Z,92.56
2017-11-09T12:53:04.700Z,92.36
2017-11-09T12:54:04.710Z,92.36
2017-11-09T12:55:04.698Z,91.99
2017-11-09T12:56:04.699Z,91.32
2017-11-09T12:57:04.695Z,91.89
2017-11-09T12:58:04.698Z,92.27
2017-11-09T12:59:04.687Z,92.27
2017-11-09T13:00:04.696Z,92.27
2017-11-09T13:01:04.692Z,92.75
2017-11-09T13:02:04.685Z,92.32
2017-11-09T13:03:13.315Z,92.03
2017-11-09T13:04:59.086Z,91.84
2017-11-09T13:05:59.052Z,91.65
2017-11-09T13:07:52.644Z,91.56
2017-11-09T13:08:52.632Z,92.60
2017-11-09T13:10:46.229Z,91.46
2017-11-09T13:11:46.216Z,92.41
2017-11-09T13:13:39.610Z,91.65
2017-11-09T13:14:39.571Z,91.27
2017-11-09T13:16:32.963Z,91.37
2017-11-09T13:17:32.940Z,91.65
2017-11-09T13:19:27.366Z,91.27
2017-11-09T13:20:27.340Z,91.17